createdAt,value
2022-11-25T00:00:06.262Z,1.45
2022-11-25T00:02:33.925Z,1.30
2022-11-25T00:05:03.059Z,1.23
2022-11-25T00:07:30.669Z,1.40
2022-11-25T00:09:58.291Z,1.48
2022-11-25T00:12:25.926Z,1.40
2022-11-25T00:14:53.547Z,1.50
2022-11-25T00:17:21.156Z,1.45
2022-11-25T00:19:50.828Z,1.35
2022-11-25T00:22:19.818Z,1.13
2022-11-25T00:24:47.415Z,1.33
2022-11-25T00:27:15.058Z,1.13
2022-11-25T00:29:42.628Z,1.50
2022-11-25T00:32:10.301Z,1.40
2022-11-25T00:34:37.960Z,1.20
2022-11-25T00:37:05.597Z,1.27
2022-11-25T00:39:34.621Z,1.52
2022-11-25T00:42:38.237Z,1.33
2022-11-25T00:45:07.287Z,1.35
2022-11-25T00:47:34.893Z,1.20
2022-11-25T00:50:02.472Z,1.30
2022-11-25T00:52:30.056Z,1.33
2022-11-25T00:54:59.067Z,1.00
2022-11-25T00:57:26.611Z,1.25
2022-11-25T00:59:54.235Z,1.27
2022-11-25T01:02:22.040Z,1.38
2022-11-25T01:04:49.631Z,1.52
2022-11-25T01:07:17.391Z,1.10
2022-11-25T01:09:45.055Z,1.10
2022-11-25T01:12:14.075Z,1.35
2022-11-25T01:14:41.845Z,1.17
2022-11-25T01:17:09.404Z,1.20
2022-11-25T01:19:39.946Z,1.02
2022-11-25T01:22:07.682Z,1.23
2022-11-25T01:24:35.779Z,1.20
2022-11-25T01:27:03.589Z,1.20
2022-11-25T01:29:32.640Z,1.20
2022-11-25T01:32:00.336Z,1.33
2022-11-25T01:34:28.167Z,1.40
2022-11-25T01:36:55.776Z,1.15
2022-11-25T01:39:28.616Z,1.20
2022-11-25T01:41:59.540Z,1.10
2022-11-25T01:44:28.544Z,1.00
2022-11-25T01:47:00.021Z,1.25
2022-11-25T01:49:33.405Z,1.30
2022-11-25T01:52:03.981Z,1.20
2022-11-25T01:54:34.675Z,1.20
2022-11-25T01:57:04.838Z,1.25
2022-11-25T01:59:33.480Z,1.10
2022-11-25T02:02:02.443Z,1.30
2022-11-25T02:04:33.555Z,1.33
2022-11-25T02:07:04.817Z,1.30
2022-11-25T02:09:32.394Z,1.02
2022-11-25T02:11:59.980Z,1.00
2022-11-25T02:14:27.679Z,1.20
2022-11-25T02:16:55.263Z,1.35
2022-11-25T02:19:26.276Z,1.20
2022-11-25T02:21:57.612Z,1.13
2022-11-25T02:24:29.849Z,1.10
2022-11-25T02:26:58.842Z,1.13
2022-11-25T02:29:26.551Z,1.10
2022-11-25T02:31:54.235Z,1.05
2022-11-25T02:34:21.935Z,1.15
2022-11-25T02:36:49.607Z,1.00
2022-11-25T02:39:17.173Z,1.30
2022-11-25T02:41:45.409Z,1.30
2022-11-25T02:44:14.489Z,1.02
2022-11-25T02:46:42.056Z,1.10
2022-11-25T02:49:10.527Z,1.10
2022-11-25T02:51:38.589Z,1.10
2022-11-25T02:54:06.220Z,1.20
2022-11-25T02:56:34.881Z,1.10
2022-11-25T02:59:02.492Z,1.05
2022-11-25T03:01:31.976Z,1.05
2022-11-25T03:03:59.798Z,1.23
2022-11-25T03:06:27.359Z,1.15
2022-11-25T03:08:54.941Z,1.15
2022-11-25T03:11:42.544Z,0.90
2022-11-25T03:14:10.136Z,1.25
2022-11-25T03:16:39.219Z,1.20
2022-11-25T03:19:08.400Z,1.00
2022-11-25T03:21:35.992Z,1.13
2022-11-25T03:24:03.561Z,1.10
2022-11-25T03:26:31.249Z,1.00
2022-11-25T03:28:58.907Z,1.02
2022-11-25T03:31:26.563Z,0.90
2022-11-25T03:33:56.351Z,1.08
2022-11-25T03:36:23.926Z,1.00
2022-11-25T03:38:51.547Z,1.10
2022-11-25T03:41:19.087Z,0.85
2022-11-25T03:43:47.143Z,1.00
2022-11-25T03:46:14.810Z,0.88
2022-11-25T03:48:42.396Z,1.00
2022-11-25T03:51:11.305Z,0.90
2022-11-25T03:53:38.892Z,1.00
2022-11-25T03:56:06.780Z,1.10
2022-11-25T03:58:34.547Z,1.05
2022-11-25T04:01:02.143Z,1.00
2022-11-25T04:03:29.837Z,1.08
2022-11-25T04:05:57.474Z,1.02
2022-11-25T04:08:27.360Z,1.00
2022-11-25T04:10:54.962Z,1.10
2022-11-25T04:13:21.713Z,1.05
2022-11-25T04:15:50.252Z,1.05
2022-11-25T04:18:18.653Z,0.90
2022-11-25T04:20:46.463Z,1.00
2022-11-25T04:23:14.212Z,0.90
2022-11-25T04:25:43.176Z,1.10
2022-11-25T04:28:10.769Z,1.08
2022-11-25T04:30:38.421Z,0.90
2022-11-25T04:33:06.132Z,0.80
2022-11-25T04:35:33.688Z,1.10
2022-11-25T04:38:01.293Z,0.90
2022-11-25T04:40:29.024Z,0.90
2022-11-25T04:43:03.489Z,1.10
2022-11-25T04:45:58.689Z,1.00
2022-11-25T04:48:21.359Z,1.00
2022-11-25T04:50:49.011Z,0.90
2022-11-25T04:53:16.594Z,0.90
2022-11-25T04:55:44.193Z,0.90
2022-11-25T04:58:13.223Z,1.05
2022-11-25T05:00:39.842Z,0.73
2022-11-25T05:03:07.738Z,0.85
2022-11-25T05:05:35.340Z,1.10
2022-11-25T05:08:02.974Z,0.82
2022-11-25T05:10:30.661Z,0.88
2022-11-25T05:12:58.221Z,0.95
2022-11-25T05:15:27.224Z,0.90
2022-11-25T05:17:54.839Z,1.02
2022-11-25T05:20:22.392Z,1.00
2022-11-25T05:22:50.167Z,1.20
2022-11-25T05:25:17.829Z,1.00
2022-11-25T05:27:45.452Z,1.00
2022-11-25T05:30:13.556Z,1.00
2022-11-25T05:32:42.516Z,1.00
2022-11-25T05:35:10.268Z,1.40
2022-11-25T05:37:37.868Z,1.10
2022-11-25T05:40:06.597Z,1.00
2022-11-25T05:42:34.162Z,1.10
2022-11-25T05:45:02.125Z,1.20
2022-11-25T05:47:29.675Z,1.00
2022-11-25T05:49:58.600Z,1.50
2022-11-25T05:52:26.211Z,1.10
2022-11-25T05:54:57.247Z,1.13
2022-11-25T05:57:25.355Z,1.25
2022-11-25T05:59:52.904Z,1.05
2022-11-25T06:02:20.521Z,1.15
2022-11-25T06:04:48.091Z,1.15
2022-11-25T06:07:17.080Z,1.25
2022-11-25T06:09:44.667Z,1.10
2022-11-25T06:12:12.190Z,1.10
2022-11-25T06:14:39.803Z,1.15
2022-11-25T06:17:07.387Z,1.27
2022-11-25T06:19:34.955Z,1.17
2022-11-25T06:22:02.503Z,1.33
2022-11-25T06:24:31.684Z,1.10
2022-11-25T06:27:00.501Z,1.10
2022-11-25T06:29:28.184Z,1.10
2022-11-25T06:31:55.754Z,1.05
2022-11-25T06:34:23.535Z,1.25
2022-11-25T06:36:51.092Z,1.00
2022-11-25T06:39:18.915Z,1.10
2022-11-25T06:41:48.068Z,1.23
2022-11-25T06:44:15.870Z,1.00
2022-11-25T06:46:43.488Z,1.10
2022-11-25T06:49:11.071Z,1.08
2022-11-25T06:51:38.632Z,1.00
2022-11-25T06:54:07.171Z,1.00
2022-11-25T06:56:34.739Z,1.05
2022-11-25T06:59:03.952Z,1.08
2022-11-25T07:01:31.838Z,0.93
2022-11-25T07:04:00.291Z,1.00
2022-11-25T07:06:27.994Z,1.17
2022-11-25T07:08:55.586Z,1.15
2022-11-25T07:11:24.209Z,0.95
2022-11-25T07:13:52.908Z,1.10
2022-11-25T07:16:21.915Z,1.10
2022-11-25T07:18:49.662Z,1.55
2022-11-25T07:21:18.001Z,1.40
2022-11-25T07:23:46.150Z,1.60
2022-11-25T07:26:14.680Z,1.63
2022-11-25T07:28:42.319Z,1.40
2022-11-25T07:34:00.941Z,1.60
2022-11-25T07:36:28.639Z,1.60
2022-11-25T07:38:56.287Z,1.20
2022-11-25T07:41:24.823Z,1.60
2022-11-25T07:43:53.578Z,1.73
2022-11-25T07:46:26.468Z,1.73
2022-11-25T07:48:54.739Z,1.50
2022-11-25T07:51:24.395Z,2.00
2022-11-25T07:53:52.266Z,1.50
2022-11-25T07:56:19.911Z,1.27
2022-11-25T07:58:47.552Z,1.40
2022-11-25T08:01:15.486Z,1.40
2022-11-25T08:03:43.596Z,1.48
2022-11-25T08:06:12.148Z,1.48
2022-11-25T08:08:41.407Z,1.33
2022-11-25T08:11:09.236Z,1.30
2022-11-25T08:13:36.911Z,1.50
2022-11-25T08:16:04.960Z,1.30
2022-11-25T08:18:32.622Z,1.70
2022-11-25T08:21:00.526Z,1.50
2022-11-25T08:23:28.137Z,1.38
2022-11-25T08:25:57.052Z,1.50
2022-11-25T08:28:24.659Z,1.65
2022-11-25T08:30:52.307Z,1.33
2022-11-25T08:33:19.867Z,1.30
2022-11-25T08:35:54.253Z,1.42
2022-11-25T08:38:21.863Z,1.60
2022-11-25T08:40:49.418Z,1.85
2022-11-25T08:43:21.936Z,1.65
2022-11-25T08:45:51.536Z,1.40
2022-11-25T08:48:19.997Z,1.52
2022-11-25T08:50:48.924Z,1.80
2022-11-25T08:53:16.515Z,1.98
2022-11-25T08:55:44.430Z,1.70
2022-11-25T08:58:13.135Z,1.85
2022-11-25T09:00:42.142Z,1.70
2022-11-25T09:03:09.908Z,1.90
2022-11-25T09:05:40.180Z,1.75
2022-11-25T09:08:07.913Z,2.03
2022-11-25T09:10:35.866Z,2.17
2022-11-25T09:13:03.439Z,1.80
2022-11-25T09:15:31.605Z,1.77
2022-11-25T09:18:01.164Z,2.10
2022-11-25T09:20:28.769Z,1.75
2022-11-25T09:22:56.342Z,1.80
2022-11-25T09:25:23.908Z,1.65
2022-11-25T09:27:51.490Z,1.83
2022-11-25T09:30:19.359Z,1.63
2022-11-25T09:32:49.400Z,1.80
2022-11-25T09:35:18.603Z,1.92
2022-11-25T09:37:46.143Z,1.77
2022-11-25T09:40:18.485Z,1.70
2022-11-25T09:43:08.357Z,1.80
2022-11-25T09:45:57.231Z,2.00
2022-11-25T09:48:35.697Z,1.60
2022-11-25T09:51:08.656Z,1.75
2022-11-25T09:53:43.017Z,1.60
2022-11-25T09:56:14.981Z,1.67
2022-11-25T09:58:45.638Z,1.65
2022-11-25T10:01:15.322Z,2.13
2022-11-25T10:03:45.006Z,1.50
2022-11-25T10:06:16.357Z,1.58
2022-11-25T10:08:44.916Z,1.70
2022-11-25T10:11:23.744Z,1.35
2022-11-25T10:13:55.835Z,1.50
2022-11-25T10:16:31.677Z,1.30
2022-11-25T10:19:01.098Z,1.52
2022-11-25T10:21:29.988Z,1.48
2022-11-25T10:23:57.760Z,1.48
2022-11-25T10:26:30.223Z,1.40
2022-11-25T10:29:01.380Z,1.63
2022-11-25T10:31:31.457Z,1.55
2022-11-25T10:33:59.870Z,1.60
2022-11-25T10:36:28.769Z,1.63
2022-11-25T10:38:58.463Z,1.55
2022-11-25T10:41:28.317Z,1.60
2022-11-25T10:43:55.917Z,1.60
2022-11-25T10:46:43.353Z,1.40
2022-11-25T10:49:16.036Z,1.48
2022-11-25T10:51:46.997Z,1.50
2022-11-25T10:54:20.459Z,1.40
2022-11-25T10:56:52.103Z,1.60
2022-11-25T10:59:24.765Z,1.30
2022-11-25T11:01:52.978Z,1.30
2022-11-25T11:04:20.568Z,1.30
2022-11-25T11:06:48.944Z,1.50
2022-11-25T11:09:33.669Z,1.60
2022-11-25T11:12:08.966Z,1.50
2022-11-25T11:14:36.777Z,1.42
2022-11-25T11:17:04.482Z,1.60
2022-11-25T11:19:32.164Z,1.35
2022-11-25T11:22:16.103Z,1.40
2022-11-25T11:24:45.088Z,1.60
2022-11-25T11:27:17.628Z,1.40
2022-11-25T11:29:45.202Z,1.50
2022-11-25T11:32:21.599Z,1.40
2022-11-25T11:34:55.063Z,1.40
2022-11-25T11:37:37.670Z,1.25
2022-11-25T11:40:20.041Z,1.60
2022-11-25T11:42:59.191Z,1.50
2022-11-25T11:45:36.744Z,1.30
2022-11-25T11:48:10.736Z,1.35
2022-11-25T11:50:39.775Z,1.30
2022-11-25T11:53:11.677Z,1.13
2022-11-25T11:56:19.090Z,1.30
2022-11-25T11:58:52.081Z,1.20
2022-11-25T12:01:27.649Z,1.52
2022-11-25T12:03:58.349Z,1.30
2022-11-25T12:06:26.928Z,1.42
2022-11-25T12:08:59.216Z,1.20
2022-11-25T12:11:30.014Z,1.42
2022-11-25T12:14:01.157Z,1.23
2022-11-25T12:16:32.331Z,1.20
2022-11-25T12:19:01.970Z,1.27
2022-11-25T12:21:41.659Z,1.10
2022-11-25T12:24:13.463Z,1.25
2022-11-25T12:26:45.972Z,1.17
2022-11-25T12:29:14.695Z,1.27
2022-11-25T12:31:44.957Z,1.30
2022-11-25T12:34:13.572Z,1.30
2022-11-25T12:36:41.628Z,1.40
2022-11-25T12:39:15.264Z,1.42
2022-11-25T12:41:44.943Z,1.38
2022-11-25T12:44:15.628Z,1.40
2022-11-25T12:46:45.576Z,1.60
2022-11-25T12:49:16.852Z,1.20
2022-11-25T12:52:01.387Z,1.20
2022-11-25T12:54:37.417Z,1.88
2022-11-25T12:57:22.406Z,1.15
2022-11-25T13:00:32.826Z,1.30
2022-11-25T13:03:08.097Z,1.10
2022-11-25T13:05:53.127Z,1.23
2022-11-25T13:08:28.315Z,1.40
2022-11-25T13:11:07.004Z,1.80
2022-11-25T13:13:43.666Z,1.30
2022-11-25T13:16:12.102Z,1.33
2022-11-25T13:18:41.560Z,1.33
2022-11-25T13:21:09.716Z,1.30
2022-11-25T13:23:49.548Z,1.20
2022-11-25T13:26:47.158Z,1.17
2022-11-25T13:30:03.811Z,1.33
2022-11-25T13:32:37.697Z,1.40
2022-11-25T13:35:39.209Z,1.40
2022-11-25T13:38:26.661Z,1.50
2022-11-25T13:40:57.778Z,1.58
2022-11-25T13:43:25.347Z,1.27
2022-11-25T13:45:52.976Z,1.38
2022-11-25T13:48:23.220Z,1.38
2022-11-25T13:53:39.127Z,1.35
2022-11-25T13:56:14.435Z,1.38
2022-11-25T13:58:42.004Z,1.40
2022-11-25T14:01:28.025Z,1.45
2022-11-25T14:04:01.025Z,1.70
2022-11-25T14:06:51.273Z,1.90
2022-11-25T14:09:37.286Z,1.20
2022-11-25T14:12:12.238Z,1.73
2022-11-25T14:14:51.506Z,1.60
2022-11-25T14:17:31.223Z,1.77
2022-11-25T14:20:10.367Z,1.90
2022-11-25T14:22:52.015Z,1.50
2022-11-25T14:25:22.134Z,1.55
2022-11-25T14:27:51.699Z,1.40
2022-11-25T14:30:19.312Z,1.50
2022-11-25T14:32:50.628Z,1.40
2022-11-25T14:35:20.696Z,1.77
2022-11-25T14:37:49.836Z,1.92
2022-11-25T14:40:22.465Z,1.60
2022-11-25T14:42:51.219Z,1.85
2022-11-25T14:45:23.546Z,1.77
2022-11-25T14:47:51.127Z,1.45
2022-11-25T14:50:34.719Z,1.80
2022-11-25T14:53:06.956Z,1.67
2022-11-25T14:55:34.564Z,1.95
2022-11-25T14:58:02.227Z,1.50
2022-11-25T15:00:29.816Z,1.60
2022-11-25T15:02:58.031Z,1.80
2022-11-25T15:05:27.768Z,1.65
2022-11-25T15:07:58.414Z,1.75
2022-11-25T15:10:39.277Z,1.70
2022-11-25T15:13:12.391Z,1.80
2022-11-25T15:15:39.973Z,1.83
2022-11-25T15:18:07.812Z,1.77
2022-11-25T15:20:37.425Z,1.98
2022-11-25T15:23:04.985Z,1.60
2022-11-25T15:25:32.565Z,1.90
2022-11-25T15:28:00.139Z,1.88
2022-11-25T15:30:29.199Z,1.70
2022-11-25T15:32:56.779Z,1.60
2022-11-25T15:35:25.436Z,2.00
2022-11-25T15:37:55.008Z,1.80
2022-11-25T15:40:31.118Z,1.77
2022-11-25T15:42:59.196Z,1.70
2022-11-25T15:45:26.784Z,1.80
2022-11-25T15:47:54.417Z,1.60
2022-11-25T15:50:23.312Z,2.08
2022-11-25T15:52:51.632Z,1.40
2022-11-25T15:55:22.416Z,2.03
2022-11-25T15:57:50.473Z,1.55
2022-11-25T16:00:19.113Z,1.67
2022-11-25T16:02:54.090Z,1.58
2022-11-25T16:05:39.657Z,1.65
2022-11-25T16:08:32.323Z,1.80
2022-11-25T16:11:10.985Z,1.80
2022-11-25T16:13:39.586Z,1.85
2022-11-25T16:16:18.190Z,1.80
2022-11-25T16:19:06.013Z,1.80
2022-11-25T16:21:41.158Z,1.95
2022-11-25T16:24:14.416Z,1.40
2022-11-25T16:26:50.904Z,1.60
2022-11-25T16:29:19.891Z,1.48
2022-11-25T16:31:47.512Z,1.60
2022-11-25T16:34:16.452Z,1.88
2022-11-25T16:36:44.152Z,1.80
2022-11-25T16:39:11.716Z,1.73
2022-11-25T16:41:39.340Z,1.60
2022-11-25T16:44:11.206Z,1.63
2022-11-25T16:46:38.783Z,1.75
2022-11-25T16:49:06.737Z,1.80
2022-11-25T16:51:34.328Z,1.73
2022-11-25T16:54:01.887Z,1.50
2022-11-25T16:56:29.527Z,1.65
2022-11-25T16:58:57.180Z,1.70
2022-11-25T17:01:27.432Z,1.90
2022-11-25T17:03:55.175Z,1.52
2022-11-25T17:06:23.896Z,1.40
2022-11-25T17:08:51.614Z,1.70
2022-11-25T17:11:20.836Z,2.08
2022-11-25T17:13:50.344Z,1.60
2022-11-25T17:16:18.975Z,1.67
2022-11-25T17:18:48.144Z,1.88
2022-11-25T17:21:16.257Z,2.00
2022-11-25T17:23:44.087Z,1.70
2022-11-25T17:26:14.891Z,2.05
2022-11-25T17:28:42.466Z,2.00
2022-11-25T17:31:10.394Z,2.03
2022-11-25T17:33:38.196Z,1.77
2022-11-25T17:36:09.978Z,1.98
2022-11-25T17:38:39.404Z,1.70
2022-11-25T17:41:09.572Z,1.83
2022-11-25T17:43:37.145Z,1.75
2022-11-25T17:46:04.848Z,1.85
2022-11-25T17:48:32.481Z,2.25
2022-11-25T17:51:04.556Z,1.90
2022-11-25T17:53:37.803Z,1.70
2022-11-25T17:56:12.962Z,2.10
2022-11-25T17:58:40.564Z,2.03
2022-11-25T18:01:09.557Z,1.98
2022-11-25T18:03:37.445Z,2.50
2022-11-25T18:06:06.532Z,2.67
2022-11-25T18:08:34.104Z,2.47
2022-11-25T18:11:03.781Z,2.17
2022-11-25T18:13:31.906Z,2.30
2022-11-25T18:15:59.476Z,2.20
2022-11-25T18:18:27.126Z,2.10
2022-11-25T18:20:55.806Z,2.10
2022-11-25T18:23:23.415Z,2.50
2022-11-25T18:25:50.973Z,1.90
2022-11-25T18:28:21.921Z,1.90
2022-11-25T18:30:49.646Z,2.22
2022-11-25T18:33:18.445Z,1.90
2022-11-25T18:35:46.726Z,1.88
2022-11-25T18:38:14.345Z,1.75
2022-11-25T18:40:42.504Z,1.95
2022-11-25T18:43:14.496Z,1.70
2022-11-25T18:45:43.507Z,2.00
2022-11-25T18:48:14.519Z,1.80
2022-11-25T18:50:42.186Z,2.10
2022-11-25T18:53:09.824Z,2.63
2022-11-25T18:55:37.374Z,1.90
2022-11-25T18:58:05.764Z,1.77
2022-11-25T19:00:33.796Z,1.80
2022-11-25T19:03:02.929Z,2.03
2022-11-25T19:05:31.655Z,1.75
2022-11-25T19:07:59.323Z,2.03
2022-11-25T19:10:28.441Z,1.83
2022-11-25T19:12:58.232Z,1.95
2022-11-25T19:15:26.033Z,1.50
2022-11-25T19:17:55.647Z,1.80
2022-11-25T19:20:25.187Z,2.38
2022-11-25T19:22:56.681Z,2.10
2022-11-25T19:25:27.854Z,1.90
2022-11-25T19:27:57.430Z,2.00
2022-11-25T19:30:27.787Z,1.85
2022-11-25T19:32:55.804Z,1.80
2022-11-25T19:35:28.038Z,1.70
2022-11-25T19:37:55.722Z,2.10
2022-11-25T19:40:25.036Z,2.25
2022-11-25T19:42:52.620Z,2.00
2022-11-25T19:45:21.208Z,1.85
2022-11-25T19:47:50.495Z,1.73
2022-11-25T19:50:21.040Z,1.70
2022-11-25T19:52:50.105Z,1.88
2022-11-25T19:55:18.760Z,2.00
2022-11-25T19:57:48.679Z,1.98
2022-11-25T20:00:17.272Z,1.80
2022-11-25T20:02:45.338Z,2.08
2022-11-25T20:05:16.655Z,2.25
2022-11-25T20:07:45.050Z,2.00
2022-11-25T20:10:18.635Z,1.88
2022-11-25T20:12:46.353Z,1.85
2022-11-25T20:15:13.992Z,1.75
2022-11-25T20:17:43.112Z,1.80
2022-11-25T20:20:15.256Z,1.70
2022-11-25T20:22:44.855Z,2.00
2022-11-25T20:25:12.683Z,2.20
2022-11-25T20:27:41.737Z,2.60
2022-11-25T20:30:16.247Z,2.10
2022-11-25T20:32:44.090Z,1.60
2022-11-25T20:35:12.719Z,2.03
2022-11-25T20:37:50.941Z,2.00
2022-11-25T20:40:19.932Z,1.73
2022-11-25T20:42:49.356Z,1.98
2022-11-25T20:45:17.340Z,1.73
2022-11-25T20:47:44.948Z,1.55
2022-11-25T20:50:14.196Z,1.85
2022-11-25T20:52:41.896Z,1.80
2022-11-25T20:55:18.496Z,1.85
2022-11-25T20:57:46.119Z,1.77
2022-11-25T21:00:17.834Z,1.73
2022-11-25T21:02:45.514Z,1.60
2022-11-25T21:05:13.118Z,1.67
2022-11-25T21:07:40.838Z,1.90
2022-11-25T21:10:18.494Z,1.70
2022-11-25T21:12:46.156Z,1.60
2022-11-25T21:15:16.611Z,1.55
2022-11-25T21:17:44.242Z,1.77
2022-11-25T21:20:12.859Z,1.90
2022-11-25T21:22:41.462Z,1.70
2022-11-25T21:25:12.381Z,1.42
2022-11-25T21:27:40.063Z,1.60
2022-11-25T21:30:09.167Z,1.65
2022-11-25T21:32:38.116Z,1.75
2022-11-25T21:35:06.383Z,1.65
2022-11-25T21:37:35.590Z,1.70
2022-11-25T21:40:03.208Z,1.85
2022-11-25T21:42:30.815Z,1.52
2022-11-25T21:44:58.437Z,1.60
2022-11-25T21:47:28.252Z,1.70
2022-11-25T21:49:57.184Z,1.75
2022-11-25T21:52:24.735Z,1.65
2022-11-25T21:54:52.311Z,1.60
2022-11-25T21:57:22.413Z,1.88
2022-11-25T21:59:50.056Z,1.63
2022-11-25T22:02:18.675Z,1.40
2022-11-25T22:04:46.359Z,2.00
2022-11-25T22:07:15.344Z,1.90
2022-11-25T22:09:43.038Z,1.48
2022-11-25T22:12:18.080Z,1.58
2022-11-25T22:14:45.653Z,1.52
2022-11-25T22:17:15.336Z,1.40
2022-11-25T22:19:44.516Z,1.60
2022-11-25T22:22:12.808Z,1.58
2022-11-25T22:24:41.792Z,1.75
2022-11-25T22:27:12.174Z,1.58
2022-11-25T22:29:39.753Z,1.30
2022-11-25T22:32:12.620Z,1.45
2022-11-25T22:34:40.714Z,1.70
2022-11-25T22:37:15.653Z,1.38
2022-11-25T22:39:44.681Z,1.55
2022-11-25T22:42:17.126Z,1.50
2022-11-25T22:44:45.952Z,1.58
2022-11-25T22:47:17.297Z,1.42
2022-11-25T22:49:46.152Z,1.80
2022-11-25T22:52:18.437Z,1.40
2022-11-25T22:54:47.368Z,1.30
2022-11-25T22:57:15.084Z,1.60
2022-11-25T22:59:43.114Z,1.48
2022-11-25T23:02:15.983Z,1.40
2022-11-25T23:04:43.745Z,1.40
2022-11-25T23:07:11.754Z,1.65
2022-11-25T23:09:39.457Z,1.40
2022-11-25T23:12:10.608Z,1.40
2022-11-25T23:14:38.627Z,1.70
2022-11-25T23:17:07.457Z,1.50
2022-11-25T23:19:35.196Z,1.30
2022-11-25T23:22:02.771Z,1.17
2022-11-25T23:24:30.342Z,1.17
2022-11-25T23:26:57.916Z,1.50
2022-11-25T23:29:27.910Z,1.33
2022-11-25T23:31:55.569Z,1.25
2022-11-25T23:34:23.203Z,1.27
2022-11-25T23:36:50.751Z,1.58
2022-11-25T23:39:20.044Z,1.30
2022-11-25T23:41:47.680Z,1.88
2022-11-25T23:44:16.781Z,1.40
2022-11-25T23:46:45.716Z,1.30
2022-11-25T23:49:17.206Z,1.70
2022-11-25T23:51:44.776Z,1.48
2022-11-25T23:54:13.148Z,1.45
2022-11-25T23:56:40.744Z,1.55
2022-11-25T23:59:12.832Z,1.33
